createdAt,value
2018-08-31T00:02:45.547Z,17.30
2018-08-31T00:05:50.756Z,17.40
2018-08-31T00:10:00.758Z,17.40
2018-08-31T00:12:37.072Z,17.40
2018-08-31T00:15:05.597Z,17.40
2018-08-31T00:17:33.803Z,17.40
2018-08-31T00:20:01.976Z,17.50
2018-08-31T00:22:32.050Z,17.50
2018-08-31T00:26:17.455Z,17.50
2018-08-31T00:29:39.469Z,17.50
2018-08-31T00:32:19.046Z,17.50
2018-08-31T00:34:59.768Z,17.50
2018-08-31T00:39:49.360Z,17.50
2018-08-31T00:42:28.905Z,17.50
2018-08-31T00:45:40.382Z,17.50
2018-08-31T00:48:08.859Z,17.50
2018-08-31T00:50:37.151Z,17.50
2018-08-31T00:53:05.828Z,17.50
2018-08-31T00:55:34.055Z,17.50
2018-08-31T00:58:02.198Z,17.50
2018-08-31T01:00:30.287Z,17.50
2018-08-31T01:02:58.474Z,17.50
2018-08-31T01:05:29.113Z,17.50
2018-08-31T01:07:57.437Z,17.50
2018-08-31T01:10:25.726Z,17.50
2018-08-31T01:12:55.245Z,17.50
2018-08-31T01:15:23.351Z,17.50
2018-08-31T01:17:51.486Z,17.50
2018-08-31T01:20:19.585Z,17.50
2018-08-31T01:22:47.747Z,17.50
2018-08-31T01:25:15.860Z,17.50
2018-08-31T01:27:44.039Z,17.50
2018-08-31T01:30:12.220Z,17.50
2018-08-31T01:32:40.339Z,17.40
2018-08-31T01:35:08.455Z,17.40
2018-08-31T01:37:36.591Z,17.40
2018-08-31T01:40:04.755Z,17.40
2018-08-31T01:42:32.840Z,17.40
2018-08-31T01:45:01.023Z,17.40
2018-08-31T01:47:29.116Z,17.40
2018-08-31T01:49:57.249Z,17.40
2018-08-31T01:52:25.372Z,17.30
2018-08-31T01:54:53.488Z,17.30
2018-08-31T01:57:21.631Z,17.30
2018-08-31T01:59:49.715Z,17.30
2018-08-31T02:02:19.528Z,17.30
2018-08-31T02:04:47.769Z,17.30
2018-08-31T02:07:15.868Z,17.30
2018-08-31T02:09:44.577Z,17.30
2018-08-31T02:12:12.846Z,17.30
2018-08-31T02:14:41.004Z,17.30
2018-08-31T02:17:09.180Z,17.30
2018-08-31T02:19:37.376Z,17.30
2018-08-31T02:22:05.868Z,17.30
2018-08-31T02:24:34.007Z,17.30
2018-08-31T02:27:02.192Z,17.30
2018-08-31T02:29:30.407Z,17.30
2018-08-31T02:31:58.497Z,17.20
2018-08-31T02:34:26.729Z,17.20
2018-08-31T02:36:54.868Z,17.20
2018-08-31T02:39:23.116Z,17.20
2018-08-31T02:41:51.156Z,17.20
2018-08-31T02:44:19.285Z,17.20
2018-08-31T02:46:47.375Z,17.20
2018-08-31T02:49:15.468Z,17.20
2018-08-31T02:51:46.269Z,17.20
2018-08-31T02:54:14.328Z,17.20
2018-08-31T02:56:42.431Z,17.20
2018-08-31T02:59:10.585Z,17.10
2018-08-31T03:01:38.674Z,17.10
2018-08-31T03:04:06.954Z,17.10
2018-08-31T03:06:35.056Z,17.10
2018-08-31T03:09:03.219Z,17.10
2018-08-31T03:11:31.331Z,17.10
2018-08-31T03:13:59.416Z,17.10
2018-08-31T03:16:27.497Z,17.10
2018-08-31T03:18:55.604Z,17.00
2018-08-31T03:21:23.748Z,17.00
2018-08-31T03:23:51.795Z,17.00
2018-08-31T03:26:19.977Z,17.00
2018-08-31T03:28:48.503Z,17.00
2018-08-31T03:31:16.598Z,17.00
2018-08-31T03:33:44.686Z,17.00
2018-08-31T03:36:12.781Z,17.00
2018-08-31T03:38:40.932Z,17.00
2018-08-31T03:41:09.023Z,17.00
2018-08-31T03:43:37.226Z,17.00
2018-08-31T03:46:05.427Z,17.00
2018-08-31T03:48:33.522Z,17.00
2018-08-31T03:51:01.613Z,17.00
2018-08-31T03:53:29.825Z,17.00
2018-08-31T03:55:57.912Z,17.00
2018-08-31T03:58:26.003Z,17.00
2018-08-31T04:00:54.108Z,17.00
2018-08-31T04:03:22.224Z,17.00
2018-08-31T04:05:50.317Z,16.90
2018-08-31T04:08:18.410Z,17.00
2018-08-31T04:10:46.502Z,16.90
2018-08-31T04:13:14.655Z,17.00
2018-08-31T04:15:42.776Z,17.00
2018-08-31T04:18:10.895Z,16.90
2018-08-31T04:20:39.028Z,16.90
2018-08-31T04:23:07.151Z,16.90
2018-08-31T04:25:35.278Z,16.90
2018-08-31T04:28:03.442Z,16.90
2018-08-31T04:30:34.739Z,16.90
2018-08-31T04:33:02.928Z,16.90
2018-08-31T04:35:31.124Z,16.90
2018-08-31T04:37:59.211Z,16.80
2018-08-31T04:40:27.316Z,16.90
2018-08-31T04:42:55.483Z,16.90
2018-08-31T04:45:23.525Z,16.90
2018-08-31T04:47:51.700Z,16.90
2018-08-31T04:50:19.836Z,16.90
2018-08-31T04:52:47.932Z,16.90
2018-08-31T04:55:16.024Z,16.90
2018-08-31T04:57:44.117Z,16.90
2018-08-31T05:00:12.224Z,16.90
2018-08-31T05:02:41.352Z,16.90
2018-08-31T05:05:09.448Z,16.90
2018-08-31T05:07:37.584Z,16.90
2018-08-31T05:10:05.855Z,16.90
2018-08-31T05:12:34.055Z,16.90
2018-08-31T05:15:02.218Z,16.90
2018-08-31T05:17:30.321Z,16.90
2018-08-31T05:19:58.440Z,17.00
2018-08-31T05:22:26.550Z,16.90
2018-08-31T05:24:54.700Z,16.90
2018-08-31T05:27:22.870Z,16.90
2018-08-31T05:29:50.956Z,16.90
2018-08-31T05:32:19.049Z,16.90
2018-08-31T05:34:47.208Z,16.90
2018-08-31T05:37:15.351Z,16.90
2018-08-31T05:39:43.448Z,16.90
2018-08-31T05:42:11.547Z,16.90
2018-08-31T05:44:39.673Z,17.00
2018-08-31T05:47:08.367Z,17.00
2018-08-31T05:49:36.469Z,17.00
2018-08-31T05:52:11.324Z,17.10
2018-08-31T05:54:39.451Z,17.10
2018-08-31T05:57:07.604Z,17.20
2018-08-31T05:59:35.705Z,17.30
2018-08-31T06:02:03.904Z,17.30
2018-08-31T06:04:32.036Z,17.40
2018-08-31T06:07:00.144Z,17.50
2018-08-31T06:09:29.291Z,17.60
2018-08-31T06:11:57.553Z,17.60
2018-08-31T06:14:25.713Z,17.70
2018-08-31T06:16:53.879Z,17.80
2018-08-31T06:19:23.060Z,17.80
2018-08-31T06:21:51.220Z,17.90
2018-08-31T06:24:19.366Z,17.90
2018-08-31T06:26:47.538Z,17.90
2018-08-31T06:29:15.715Z,17.90
2018-08-31T06:31:43.807Z,17.90
2018-08-31T06:34:11.927Z,17.80
2018-08-31T06:36:40.156Z,17.90
2018-08-31T06:39:08.630Z,17.90
2018-08-31T06:41:36.742Z,17.90
2018-08-31T06:44:04.999Z,17.90
2018-08-31T06:46:33.142Z,17.90
2018-08-31T06:49:01.253Z,18.00
2018-08-31T06:51:32.685Z,18.10
2018-08-31T06:54:00.832Z,18.10
2018-08-31T06:56:29.018Z,18.20
2018-08-31T06:58:57.162Z,18.20
2018-08-31T07:01:25.245Z,18.20
2018-08-31T07:03:53.463Z,18.20
2018-08-31T07:06:21.620Z,18.10
2018-08-31T07:08:49.771Z,18.20
2018-08-31T07:11:18.097Z,18.20
2018-08-31T07:13:46.381Z,18.30
2018-08-31T07:16:21.152Z,18.30
2018-08-31T07:18:49.275Z,18.40
2018-08-31T07:21:17.388Z,18.50
2018-08-31T07:23:45.520Z,18.50
2018-08-31T07:26:13.678Z,18.60
2018-08-31T07:28:41.893Z,18.80
2018-08-31T07:31:10.089Z,18.80
2018-08-31T07:33:38.204Z,18.90
2018-08-31T07:36:06.518Z,19.10
2018-08-31T07:38:34.612Z,19.20
2018-08-31T07:41:02.803Z,19.50
2018-08-31T07:43:30.961Z,19.80
2018-08-31T07:45:59.184Z,20.10
2018-08-31T07:48:27.297Z,20.40
2018-08-31T07:50:55.416Z,20.60
2018-08-31T07:53:23.515Z,21.00
2018-08-31T07:55:51.623Z,21.30
2018-08-31T07:58:19.728Z,21.60
2018-08-31T08:00:47.912Z,21.90
2018-08-31T08:03:16.024Z,22.00
2018-08-31T08:05:44.230Z,22.00
2018-08-31T08:08:12.332Z,22.20
2018-08-31T08:10:40.541Z,22.40
2018-08-31T08:13:08.689Z,22.60
2018-08-31T08:15:36.817Z,22.60
2018-08-31T08:18:05.056Z,22.60
2018-08-31T08:20:33.160Z,22.50
2018-08-31T08:23:01.288Z,22.40
2018-08-31T08:25:29.440Z,22.30
2018-08-31T08:27:57.585Z,22.20
2018-08-31T08:30:25.690Z,22.10
2018-08-31T08:32:53.812Z,22.10
2018-08-31T08:35:21.920Z,22.00
2018-08-31T08:37:50.089Z,22.00
2018-08-31T08:40:18.183Z,21.90
2018-08-31T08:42:46.314Z,21.90
2018-08-31T08:45:14.424Z,21.80
2018-08-31T08:47:42.517Z,21.60
2018-08-31T08:50:10.719Z,21.60
2018-08-31T08:52:38.821Z,21.50
2018-08-31T08:55:07.047Z,21.30
2018-08-31T08:57:35.147Z,21.20
2018-08-31T09:00:03.271Z,21.30
2018-08-31T09:02:31.415Z,21.30
2018-08-31T09:04:59.610Z,21.20
2018-08-31T09:07:27.728Z,21.30
2018-08-31T09:09:55.993Z,21.30
2018-08-31T09:12:24.189Z,21.30
2018-08-31T09:14:52.330Z,21.20
2018-08-31T09:17:20.635Z,21.30
2018-08-31T09:19:48.758Z,21.40
2018-08-31T09:22:16.892Z,21.50
2018-08-31T09:24:45.117Z,21.70
2018-08-31T09:27:13.182Z,21.80
2018-08-31T09:29:41.343Z,22.00
2018-08-31T09:32:15.073Z,22.20
2018-08-31T09:34:48.552Z,22.30
2018-08-31T09:37:18.981Z,22.40
2018-08-31T09:39:47.553Z,22.40
2018-08-31T09:42:15.816Z,22.50
2018-08-31T09:44:43.917Z,22.40
2018-08-31T09:47:12.420Z,22.30
2018-08-31T09:49:40.558Z,22.30
2018-08-31T09:52:16.552Z,22.20
2018-08-31T09:54:44.723Z,22.20
2018-08-31T09:57:12.872Z,22.50
2018-08-31T09:59:41.524Z,22.80
2018-08-31T10:02:15.827Z,23.20
2018-08-31T10:04:44.586Z,23.40
2018-08-31T10:07:12.743Z,23.60
2018-08-31T10:09:40.832Z,23.70
2018-08-31T10:12:08.924Z,23.90
2018-08-31T10:14:37.621Z,24.00
2018-08-31T10:17:05.726Z,24.20
2018-08-31T10:19:33.901Z,24.40
2018-08-31T10:22:02.002Z,24.70
2018-08-31T10:24:30.101Z,24.90
2018-08-31T10:26:58.190Z,25.10
2018-08-31T10:29:26.276Z,25.20
2018-08-31T10:31:54.380Z,25.30
2018-08-31T10:34:22.475Z,25.50
2018-08-31T10:36:50.564Z,25.60
2018-08-31T10:39:18.681Z,25.50
2018-08-31T10:41:46.789Z,25.50
2018-08-31T10:44:14.896Z,25.70
2018-08-31T10:46:43.000Z,25.80
2018-08-31T10:49:11.088Z,26.00
2018-08-31T10:51:41.814Z,25.90
2018-08-31T10:54:09.960Z,25.70
2018-08-31T10:56:38.103Z,25.70
2018-08-31T10:59:06.188Z,25.90
2018-08-31T11:01:34.333Z,26.10
2018-08-31T11:04:02.458Z,26.40
2018-08-31T11:06:30.535Z,26.80
2018-08-31T11:08:58.685Z,27.10
2018-08-31T11:11:26.724Z,27.30
2018-08-31T11:13:54.803Z,27.70
2018-08-31T11:16:22.968Z,27.90
2018-08-31T11:18:51.109Z,27.80
2018-08-31T11:21:19.143Z,27.80
2018-08-31T11:23:47.231Z,27.90
2018-08-31T11:26:15.358Z,28.00
2018-08-31T11:28:43.496Z,28.10
2018-08-31T11:31:11.595Z,28.40
2018-08-31T11:33:39.759Z,28.50
2018-08-31T11:36:08.048Z,28.70
2018-08-31T11:38:36.132Z,29.10
2018-08-31T11:41:04.336Z,29.30
2018-08-31T11:43:32.443Z,29.50
2018-08-31T11:46:02.179Z,29.80
2018-08-31T11:48:30.280Z,30.10
2018-08-31T11:50:58.360Z,30.40
2018-08-31T11:53:26.511Z,30.60
2018-08-31T11:55:54.618Z,30.80
2018-08-31T11:58:22.772Z,30.80
2018-08-31T12:00:50.871Z,31.00
2018-08-31T12:03:18.958Z,31.20
2018-08-31T12:05:47.059Z,31.70
2018-08-31T12:08:15.187Z,32.00
2018-08-31T12:10:43.293Z,32.40
2018-08-31T12:13:11.433Z,32.20
2018-08-31T12:15:41.514Z,31.60
2018-08-31T12:18:09.661Z,30.80
2018-08-31T12:20:37.751Z,30.00
2018-08-31T12:23:05.887Z,29.60
2018-08-31T12:25:33.999Z,29.80
2018-08-31T12:28:02.088Z,29.90
2018-08-31T12:30:30.400Z,30.00
2018-08-31T12:32:58.480Z,30.00
2018-08-31T12:35:26.567Z,30.00
2018-08-31T12:37:54.664Z,29.80
2018-08-31T12:40:22.808Z,29.40
2018-08-31T12:42:50.913Z,29.20
2018-08-31T12:45:18.996Z,29.10
2018-08-31T12:47:47.091Z,29.00
2018-08-31T12:50:15.205Z,28.90
2018-08-31T12:52:43.336Z,28.90
2018-08-31T12:55:11.447Z,29.10
2018-08-31T12:57:39.538Z,29.30
2018-08-31T13:00:07.704Z,29.30
2018-08-31T13:02:35.808Z,29.20
2018-08-31T13:05:04.139Z,29.20
2018-08-31T13:07:32.240Z,29.00
2018-08-31T13:10:00.332Z,28.70
2018-08-31T13:12:28.435Z,28.60
2018-08-31T13:14:56.547Z,28.40
2018-08-31T13:17:26.533Z,28.30
2018-08-31T13:19:54.644Z,28.50
2018-08-31T13:22:22.790Z,28.60
2018-08-31T13:24:50.895Z,28.60
2018-08-31T13:27:19.005Z,28.70
2018-08-31T13:29:47.123Z,28.90
2018-08-31T13:32:15.204Z,28.90
2018-08-31T13:34:43.296Z,28.90
2018-08-31T13:37:11.391Z,28.80
2018-08-31T13:39:39.495Z,28.80
2018-08-31T13:42:07.619Z,28.80
2018-08-31T13:44:35.735Z,28.90
2018-08-31T13:47:03.827Z,28.90
2018-08-31T13:49:31.934Z,28.90
2018-08-31T13:52:00.072Z,29.00
2018-08-31T13:54:28.180Z,29.00
2018-08-31T13:56:56.271Z,28.90
2018-08-31T13:59:24.381Z,28.80
2018-08-31T14:01:52.530Z,28.50
2018-08-31T14:04:20.618Z,28.20
2018-08-31T14:06:48.719Z,27.90
2018-08-31T14:09:16.816Z,27.60
2018-08-31T14:11:45.735Z,27.40
2018-08-31T14:14:13.832Z,27.40
2018-08-31T14:16:41.949Z,27.40
2018-08-31T14:19:10.223Z,27.40
2018-08-31T14:21:39.040Z,27.40
2018-08-31T14:24:07.176Z,27.20
2018-08-31T14:26:35.388Z,27.00
2018-08-31T14:29:03.573Z,26.80
2018-08-31T14:31:31.716Z,26.80
2018-08-31T14:33:59.831Z,26.80
2018-08-31T14:36:27.987Z,26.90
2018-08-31T14:38:56.164Z,27.10
2018-08-31T14:41:24.264Z,27.30
2018-08-31T14:43:52.481Z,27.40
2018-08-31T14:46:20.680Z,27.50
2018-08-31T14:48:48.784Z,27.50
2018-08-31T14:51:19.437Z,27.60
2018-08-31T14:53:49.979Z,27.50
2018-08-31T14:56:18.079Z,27.40
2018-08-31T14:58:46.286Z,27.20
2018-08-31T15:01:14.339Z,27.00
2018-08-31T15:03:42.450Z,26.80
2018-08-31T15:06:10.539Z,26.80
2018-08-31T15:08:38.645Z,26.80
2018-08-31T15:11:06.736Z,26.70
2018-08-31T15:13:34.846Z,26.70
2018-08-31T15:16:02.968Z,26.60
2018-08-31T15:18:31.072Z,26.50
2018-08-31T15:20:59.175Z,26.40
2018-08-31T15:23:27.360Z,26.20
2018-08-31T15:25:55.424Z,26.00
2018-08-31T15:28:23.519Z,25.90
2018-08-31T15:30:51.639Z,25.70
2018-08-31T15:33:19.784Z,25.60
2018-08-31T15:35:47.885Z,25.50
2018-08-31T15:38:15.967Z,25.50
2018-08-31T15:40:44.935Z,25.60
2018-08-31T15:43:13.037Z,25.70
2018-08-31T15:45:41.137Z,25.70
2018-08-31T15:48:09.296Z,25.70
2018-08-31T15:50:37.472Z,25.70
2018-08-31T15:55:33.383Z,25.70
2018-08-31T15:58:01.471Z,25.60
2018-08-31T16:00:29.576Z,25.50
2018-08-31T16:02:57.684Z,25.60
2018-08-31T16:05:25.794Z,25.70
2018-08-31T16:07:53.880Z,25.70
2018-08-31T16:10:21.980Z,25.80
2018-08-31T16:12:50.093Z,25.90
2018-08-31T16:15:18.187Z,25.90
2018-08-31T16:17:46.297Z,25.90
2018-08-31T16:20:14.420Z,25.80
2018-08-31T16:22:42.537Z,25.70
2018-08-31T16:25:10.637Z,25.60
2018-08-31T16:27:38.796Z,25.40
2018-08-31T16:30:07.201Z,25.20
2018-08-31T16:32:35.353Z,24.90
2018-08-31T16:35:03.529Z,24.70
2018-08-31T16:37:31.665Z,24.60
2018-08-31T16:39:59.772Z,24.50
2018-08-31T16:42:27.951Z,24.50
2018-08-31T16:44:56.059Z,24.50
2018-08-31T16:47:24.502Z,24.40
2018-08-31T16:49:52.737Z,24.40
2018-08-31T16:52:21.006Z,24.30
2018-08-31T16:54:49.767Z,24.20
2018-08-31T16:57:17.884Z,24.00
2018-08-31T16:59:46.043Z,23.90
2018-08-31T17:02:14.220Z,23.90
2018-08-31T17:04:42.392Z,23.70
2018-08-31T17:07:10.492Z,23.60
2018-08-31T17:09:38.630Z,23.60
2018-08-31T17:12:06.748Z,23.60
2018-08-31T17:14:34.844Z,23.40
2018-08-31T17:17:03.202Z,23.30
2018-08-31T17:19:31.140Z,23.40
2018-08-31T17:22:00.319Z,23.30
2018-08-31T17:24:29.584Z,23.20
2018-08-31T17:27:02.889Z,23.10
2018-08-31T17:29:33.744Z,23.10
2018-08-31T17:32:07.100Z,23.00
2018-08-31T17:34:40.487Z,23.00
2018-08-31T17:37:13.830Z,22.90
2018-08-31T17:39:41.923Z,22.80
2018-08-31T17:42:10.605Z,22.80
2018-08-31T17:44:38.704Z,22.70
2018-08-31T17:47:06.807Z,22.60
2018-08-31T17:49:35.004Z,22.60
2018-08-31T17:52:04.287Z,22.50
2018-08-31T17:54:32.485Z,22.50
2018-08-31T17:57:05.441Z,22.50
2018-08-31T17:59:34.127Z,22.40
2018-08-31T18:02:02.230Z,22.30
2018-08-31T18:04:30.339Z,22.30
2018-08-31T18:06:58.428Z,22.20
2018-08-31T18:09:27.205Z,22.10
2018-08-31T18:11:55.318Z,22.00
2018-08-31T18:14:23.408Z,22.00
2018-08-31T18:16:51.521Z,21.90
2018-08-31T18:19:19.611Z,21.80
2018-08-31T18:21:47.734Z,21.70
2018-08-31T18:24:15.823Z,21.70
2018-08-31T18:26:43.983Z,21.60
2018-08-31T18:29:12.073Z,21.50
2018-08-31T18:31:40.240Z,21.50
2018-08-31T18:34:08.418Z,21.40
2018-08-31T18:36:36.568Z,21.40
2018-08-31T18:39:06.478Z,21.30
2018-08-31T18:41:34.634Z,21.20
2018-08-31T18:44:02.793Z,21.20
2018-08-31T18:46:30.992Z,21.10
2018-08-31T18:48:59.123Z,21.10
2018-08-31T18:51:29.427Z,21.00
2018-08-31T18:53:57.602Z,21.00
2018-08-31T18:56:25.791Z,21.00
2018-08-31T18:58:53.939Z,21.00
2018-08-31T19:01:22.207Z,20.90
2018-08-31T19:03:50.515Z,20.90
2018-08-31T19:06:18.757Z,20.80
2018-08-31T19:08:47.030Z,20.80
2018-08-31T19:11:15.188Z,20.70
2018-08-31T19:13:43.400Z,20.60
2018-08-31T19:16:11.555Z,20.60
2018-08-31T19:18:39.787Z,20.60
2018-08-31T19:21:07.751Z,20.60
2018-08-31T19:23:39.033Z,20.50
2018-08-31T19:26:07.384Z,20.50
2018-08-31T19:28:35.687Z,20.40
2018-08-31T19:31:03.819Z,20.40
2018-08-31T19:33:31.960Z,20.40
2018-08-31T19:36:00.229Z,20.30
2018-08-31T19:38:28.686Z,20.30
2018-08-31T19:40:56.919Z,20.30
2018-08-31T19:43:24.999Z,20.30
2018-08-31T19:45:53.119Z,20.30
2018-08-31T19:48:21.378Z,20.30
2018-08-31T19:50:49.650Z,20.30
2018-08-31T19:53:17.755Z,20.30
2018-08-31T19:55:45.928Z,20.30
2018-08-31T19:58:14.156Z,20.20
2018-08-31T20:00:43.884Z,20.20
2018-08-31T20:03:12.095Z,20.20
2018-08-31T20:05:40.359Z,20.20
2018-08-31T20:08:08.587Z,20.20
2018-08-31T20:10:36.913Z,20.10
2018-08-31T20:13:05.167Z,20.10
2018-08-31T20:15:33.345Z,20.10
2018-08-31T20:18:01.584Z,20.00
2018-08-31T20:20:29.732Z,20.00
2018-08-31T20:22:57.940Z,20.00
2018-08-31T20:25:26.063Z,20.00
2018-08-31T20:27:54.217Z,19.90
2018-08-31T20:30:22.336Z,20.00
2018-08-31T20:32:50.568Z,19.90
2018-08-31T20:35:18.759Z,19.90
2018-08-31T20:37:46.887Z,19.90
2018-08-31T20:40:15.020Z,19.80
2018-08-31T20:42:43.135Z,19.80
2018-08-31T20:45:11.227Z,19.80
2018-08-31T20:47:39.393Z,19.70
2018-08-31T20:50:07.776Z,19.70
2018-08-31T20:52:35.908Z,19.70
2018-08-31T20:55:05.922Z,19.60
2018-08-31T20:57:34.208Z,19.60
2018-08-31T21:00:02.470Z,19.60
2018-08-31T21:02:32.293Z,19.50
2018-08-31T21:05:00.525Z,19.50
2018-08-31T21:07:28.708Z,19.40
2018-08-31T21:09:56.819Z,19.40
2018-08-31T21:12:24.948Z,19.40
2018-08-31T21:14:53.070Z,19.40
2018-08-31T21:17:21.211Z,19.40
2018-08-31T21:19:49.456Z,19.30
2018-08-31T21:22:17.575Z,19.30
2018-08-31T21:24:45.683Z,19.20
2018-08-31T21:27:13.808Z,19.20
2018-08-31T21:29:41.974Z,19.20
2018-08-31T21:32:10.216Z,19.20
2018-08-31T21:34:38.316Z,19.20
2018-08-31T21:37:06.722Z,19.10
2018-08-31T21:39:34.849Z,19.10
2018-08-31T21:42:03.098Z,19.10
2018-08-31T21:44:31.238Z,19.00
2018-08-31T21:46:59.384Z,19.00
2018-08-31T21:49:27.554Z,18.90
2018-08-31T21:51:55.588Z,18.90
2018-08-31T21:54:23.809Z,18.90
2018-08-31T21:56:51.992Z,18.90
2018-08-31T21:59:20.229Z,18.90
2018-08-31T22:01:53.347Z,18.90
2018-08-31T22:04:21.917Z,18.80
2018-08-31T22:06:50.015Z,18.80
2018-08-31T22:09:18.143Z,18.80
2018-08-31T22:11:46.295Z,18.70
2018-08-31T22:14:14.487Z,18.70
2018-08-31T22:16:42.738Z,18.70
2018-08-31T22:19:10.933Z,18.60
2018-08-31T22:21:39.101Z,18.50
2018-08-31T22:24:07.327Z,18.60
2018-08-31T22:26:37.126Z,18.50
2018-08-31T22:29:05.592Z,18.50
2018-08-31T22:31:33.763Z,18.50
2018-08-31T22:34:02.042Z,18.50
2018-08-31T22:36:30.236Z,18.40
2018-08-31T22:38:58.339Z,18.40
2018-08-31T22:41:26.460Z,18.30
2018-08-31T22:43:54.723Z,18.30
2018-08-31T22:46:23.862Z,18.30
2018-08-31T22:48:52.551Z,18.30
2018-08-31T22:51:23.802Z,18.30
2018-08-31T22:53:51.965Z,18.20
2018-08-31T22:56:20.159Z,18.20
2018-08-31T22:58:48.337Z,18.10
2018-08-31T23:01:16.476Z,18.10
2018-08-31T23:03:44.795Z,18.10
2018-08-31T23:06:13.217Z,18.10
2018-08-31T23:08:41.354Z,18.10
2018-08-31T23:11:11.471Z,18.10
2018-08-31T23:13:41.512Z,18.10
2018-08-31T23:16:09.732Z,18.10
2018-08-31T23:18:37.884Z,18.20
2018-08-31T23:21:06.301Z,18.20
2018-08-31T23:23:48.493Z,18.20
2018-08-31T23:26:17.119Z,18.20
2018-08-31T23:28:45.260Z,18.10
2018-08-31T23:31:13.424Z,18.20
2018-08-31T23:33:41.565Z,18.10
2018-08-31T23:36:09.719Z,18.10
2018-08-31T23:38:37.828Z,18.10
2018-08-31T23:41:05.950Z,18.10
2018-08-31T23:43:34.130Z,18.00
2018-08-31T23:46:02.274Z,18.00
2018-08-31T23:48:30.401Z,17.90
2018-08-31T23:50:58.655Z,17.70
2018-08-31T23:53:26.815Z,17.80
2018-08-31T23:55:54.982Z,17.70
2018-08-31T23:58:24.082Z,17.60
